sensor_id;sensor_type;location;lat;lon;timestamp;temperature;humidity
46043;DHT22;32533;-33.854;18.542;2022-08-14T00:00:18;14.40;86.40
46043;DHT22;32533;-33.854;18.542;2022-08-14T00:02:45;14.40;86.00
46043;DHT22;32533;-33.854;18.542;2022-08-14T00:05:15;14.40;85.60
46043;DHT22;32533;-33.854;18.542;2022-08-14T00:07:43;14.40;85.40
46043;DHT22;32533;-33.854;18.542;2022-08-14T00:10:12;14.30;85.30
46043;DHT22;32533;-33.854;18.542;2022-08-14T00:12:43;14.40;85.50
46043;DHT22;32533;-33.854;18.542;2022-08-14T00:15:32;14.40;85.70
46043;DHT22;32533;-33.854;18.542;2022-08-14T00:18:00;14.40;85.90
46043;DHT22;32533;-33.854;18.542;2022-08-14T00:20:30;14.40;86.30
46043;DHT22;32533;-33.854;18.542;2022-08-14T00:22:58;14.40;86.40
46043;DHT22;32533;-33.854;18.542;2022-08-14T00:25:26;14.30;86.40
46043;DHT22;32533;-33.854;18.542;2022-08-14T00:27:53;14.40;86.60
46043;DHT22;32533;-33.854;18.542;2022-08-14T00:30:20;14.30;86.60
46043;DHT22;32533;-33.854;18.542;2022-08-14T00:32:47;14.30;86.60
46043;DHT22;32533;-33.854;18.542;2022-08-14T00:35:14;14.30;86.60
46043;DHT22;32533;-33.854;18.542;2022-08-14T00:37:43;14.30;86.70
46043;DHT22;32533;-33.854;18.542;2022-08-14T00:40:14;14.30;86.80
46043;DHT22;32533;-33.854;18.542;2022-08-14T00:42:42;14.30;86.90
46043;DHT22;32533;-33.854;18.542;2022-08-14T00:45:11;14.30;87.10
46043;DHT22;32533;-33.854;18.542;2022-08-14T00:47:39;14.30;87.30
46043;DHT22;32533;-33.854;18.542;2022-08-14T00:50:07;14.30;87.40
46043;DHT22;32533;-33.854;18.542;2022-08-14T00:52:35;14.30;87.50
46043;DHT22;32533;-33.854;18.542;2022-08-14T00:55:03;14.30;87.60
46043;DHT22;32533;-33.854;18.542;2022-08-14T00:57:31;14.30;87.70
46043;DHT22;32533;-33.854;18.542;2022-08-14T00:59:58;14.30;87.80
46043;DHT22;32533;-33.854;18.542;2022-08-14T01:02:26;14.30;87.90
46043;DHT22;32533;-33.854;18.542;2022-08-14T01:04:56;14.30;88.00
46043;DHT22;32533;-33.854;18.542;2022-08-14T01:07:24;14.30;88.00
46043;DHT22;32533;-33.854;18.542;2022-08-14T01:09:56;14.30;88.00
46043;DHT22;32533;-33.854;18.542;2022-08-14T01:12:32;14.30;88.10
46043;DHT22;32533;-33.854;18.542;2022-08-14T01:15:00;14.30;88.10
46043;DHT22;32533;-33.854;18.542;2022-08-14T01:17:29;14.40;88.20
46043;DHT22;32533;-33.854;18.542;2022-08-14T01:20:14;14.40;88.30
46043;DHT22;32533;-33.854;18.542;2022-08-14T01:22:59;14.40;88.30
46043;DHT22;32533;-33.854;18.542;2022-08-14T01:25:25;14.40;88.40
46043;DHT22;32533;-33.854;18.542;2022-08-14T01:27:52;14.40;88.50
46043;DHT22;32533;-33.854;18.542;2022-08-14T01:30:20;14.40;88.60
46043;DHT22;32533;-33.854;18.542;2022-08-14T01:32:49;14.40;88.50
46043;DHT22;32533;-33.854;18.542;2022-08-14T01:35:16;14.40;88.70
46043;DHT22;32533;-33.854;18.542;2022-08-14T01:37:43;14.40;88.80
46043;DHT22;32533;-33.854;18.542;2022-08-14T01:40:14;14.40;88.80
46043;DHT22;32533;-33.854;18.542;2022-08-14T01:42:42;14.40;88.90
46043;DHT22;32533;-33.854;18.542;2022-08-14T01:45:09;14.40;89.00
46043;DHT22;32533;-33.854;18.542;2022-08-14T01:47:39;14.40;88.90
46043;DHT22;32533;-33.854;18.542;2022-08-14T01:50:07;14.40;89.10
46043;DHT22;32533;-33.854;18.542;2022-08-14T01:52:35;14.40;88.50
46043;DHT22;32533;-33.854;18.542;2022-08-14T01:55:07;14.40;88.50
46043;DHT22;32533;-33.854;18.542;2022-08-14T01:57:43;14.40;88.50
46043;DHT22;32533;-33.854;18.542;2022-08-14T02:00:10;14.40;88.50
46043;DHT22;32533;-33.854;18.542;2022-08-14T02:02:42;14.40;88.40
46043;DHT22;32533;-33.854;18.542;2022-08-14T02:05:12;14.40;88.20
46043;DHT22;32533;-33.854;18.542;2022-08-14T02:07:40;14.40;88.30
46043;DHT22;32533;-33.854;18.542;2022-08-14T02:10:10;14.40;88.50
46043;DHT22;32533;-33.854;18.542;2022-08-14T02:12:37;14.40;88.70
46043;DHT22;32533;-33.854;18.542;2022-08-14T02:15:04;14.40;89.00
46043;DHT22;32533;-33.854;18.542;2022-08-14T02:17:33;14.40;89.00
46043;DHT22;32533;-33.854;18.542;2022-08-14T02:20:00;14.40;89.00
46043;DHT22;32533;-33.854;18.542;2022-08-14T02:22:26;14.40;88.90
46043;DHT22;32533;-33.854;18.542;2022-08-14T02:24:53;14.40;89.00
46043;DHT22;32533;-33.854;18.542;2022-08-14T02:27:20;14.40;89.10
46043;DHT22;32533;-33.854;18.542;2022-08-14T02:29:47;14.40;89.10
46043;DHT22;32533;-33.854;18.542;2022-08-14T02:32:13;14.30;89.10
46043;DHT22;32533;-33.854;18.542;2022-08-14T02:34:41;14.40;89.30
46043;DHT22;32533;-33.854;18.542;2022-08-14T02:37:09;14.40;89.40
46043;DHT22;32533;-33.854;18.542;2022-08-14T02:39:42;14.40;89.60
46043;DHT22;32533;-33.854;18.542;2022-08-14T02:42:11;14.40;89.70
46043;DHT22;32533;-33.854;18.542;2022-08-14T02:44:40;14.40;89.70
46043;DHT22;32533;-33.854;18.542;2022-08-14T02:47:07;14.40;89.70
46043;DHT22;32533;-33.854;18.542;2022-08-14T02:49:34;14.40;89.80
46043;DHT22;32533;-33.854;18.542;2022-08-14T02:52:03;14.40;89.80
46043;DHT22;32533;-33.854;18.542;2022-08-14T02:54:31;14.40;89.80
46043;DHT22;32533;-33.854;18.542;2022-08-14T02:57:00;14.40;89.90
46043;DHT22;32533;-33.854;18.542;2022-08-14T02:59:31;14.40;90.00
46043;DHT22;32533;-33.854;18.542;2022-08-14T03:02:00;14.40;90.10
46043;DHT22;32533;-33.854;18.542;2022-08-14T03:04:27;14.40;90.10
46043;DHT22;32533;-33.854;18.542;2022-08-14T03:06:54;14.40;90.20
46043;DHT22;32533;-33.854;18.542;2022-08-14T03:09:21;14.50;90.10
46043;DHT22;32533;-33.854;18.542;2022-08-14T03:11:48;14.40;90.10
46043;DHT22;32533;-33.854;18.542;2022-08-14T03:14:14;14.40;90.00
46043;DHT22;32533;-33.854;18.542;2022-08-14T03:16:41;14.40;90.00
46043;DHT22;32533;-33.854;18.542;2022-08-14T03:19:08;14.50;90.00
46043;DHT22;32533;-33.854;18.542;2022-08-14T03:21:36;14.40;90.00
46043;DHT22;32533;-33.854;18.542;2022-08-14T03:24:05;14.40;89.90
46043;DHT22;32533;-33.854;18.542;2022-08-14T03:26:35;14.40;90.00
46043;DHT22;32533;-33.854;18.542;2022-08-14T03:29:03;14.40;90.00
46043;DHT22;32533;-33.854;18.542;2022-08-14T03:31:29;14.50;90.30
46043;DHT22;32533;-33.854;18.542;2022-08-14T03:33:57;14.50;90.40
46043;DHT22;32533;-33.854;18.542;2022-08-14T03:36:23;14.50;90.50
46043;DHT22;32533;-33.854;18.542;2022-08-14T03:38:51;14.50;90.60
46043;DHT22;32533;-33.854;18.542;2022-08-14T03:41:23;14.60;90.80
46043;DHT22;32533;-33.854;18.542;2022-08-14T03:43:55;14.60;91.00
46043;DHT22;32533;-33.854;18.542;2022-08-14T03:46:33;14.60;91.00
46043;DHT22;32533;-33.854;18.542;2022-08-14T03:49:00;14.60;91.20
46043;DHT22;32533;-33.854;18.542;2022-08-14T03:51:33;14.60;91.30
46043;DHT22;32533;-33.854;18.542;2022-08-14T03:54:03;14.60;91.60
46043;DHT22;32533;-33.854;18.542;2022-08-14T03:56:31;14.60;91.80
46043;DHT22;32533;-33.854;18.542;2022-08-14T03:58:59;14.60;92.00
46043;DHT22;32533;-33.854;18.542;2022-08-14T04:01:34;14.60;91.70
46043;DHT22;32533;-33.854;18.542;2022-08-14T04:04:01;14.50;91.60
46043;DHT22;32533;-33.854;18.542;2022-08-14T04:06:32;14.50;91.60
46043;DHT22;32533;-33.854;18.542;2022-08-14T04:08:59;14.50;91.50
46043;DHT22;32533;-33.854;18.542;2022-08-14T04:11:25;14.50;91.60
46043;DHT22;32533;-33.854;18.542;2022-08-14T04:13:52;14.50;91.60
46043;DHT22;32533;-33.854;18.542;2022-08-14T04:16:20;14.50;91.60
46043;DHT22;32533;-33.854;18.542;2022-08-14T04:18:53;14.50;91.60
46043;DHT22;32533;-33.854;18.542;2022-08-14T04:21:22;14.50;91.90
46043;DHT22;32533;-33.854;18.542;2022-08-14T04:23:59;14.40;91.50
46043;DHT22;32533;-33.854;18.542;2022-08-14T04:26:27;14.40;91.60
46043;DHT22;32533;-33.854;18.542;2022-08-14T04:28:56;14.40;91.50
46043;DHT22;32533;-33.854;18.542;2022-08-14T04:31:24;14.40;91.50
46043;DHT22;32533;-33.854;18.542;2022-08-14T04:33:51;14.40;91.50
46043;DHT22;32533;-33.854;18.542;2022-08-14T04:36:18;14.40;91.50
46043;DHT22;32533;-33.854;18.542;2022-08-14T04:38:45;14.40;91.50
46043;DHT22;32533;-33.854;18.542;2022-08-14T04:41:30;14.40;91.50
46043;DHT22;32533;-33.854;18.542;2022-08-14T04:44:15;14.40;91.50
46043;DHT22;32533;-33.854;18.542;2022-08-14T04:46:42;14.40;91.70
46043;DHT22;32533;-33.854;18.542;2022-08-14T04:49:32;14.40;91.70
46043;DHT22;32533;-33.854;18.542;2022-08-14T04:51:58;14.40;91.70
46043;DHT22;32533;-33.854;18.542;2022-08-14T04:54:31;14.40;91.90
46043;DHT22;32533;-33.854;18.542;2022-08-14T04:56:58;14.40;92.00
46043;DHT22;32533;-33.854;18.542;2022-08-14T04:59:24;14.40;92.20
46043;DHT22;32533;-33.854;18.542;2022-08-14T05:01:51;14.50;92.30
46043;DHT22;32533;-33.854;18.542;2022-08-14T05:04:21;14.50;92.30
46043;DHT22;32533;-33.854;18.542;2022-08-14T05:06:51;14.50;92.10
46043;DHT22;32533;-33.854;18.542;2022-08-14T05:09:18;14.40;92.20
46043;DHT22;32533;-33.854;18.542;2022-08-14T05:11:45;14.40;92.20
46043;DHT22;32533;-33.854;18.542;2022-08-14T05:14:12;14.40;92.20
46043;DHT22;32533;-33.854;18.542;2022-08-14T05:16:39;14.40;92.10
46043;DHT22;32533;-33.854;18.542;2022-08-14T05:19:05;14.40;91.80
46043;DHT22;32533;-33.854;18.542;2022-08-14T05:21:40;14.30;91.60
46043;DHT22;32533;-33.854;18.542;2022-08-14T05:24:07;14.30;91.60
46043;DHT22;32533;-33.854;18.542;2022-08-14T05:26:37;14.30;91.70
46043;DHT22;32533;-33.854;18.542;2022-08-14T05:29:11;14.30;91.90
46043;DHT22;32533;-33.854;18.542;2022-08-14T05:31:38;14.30;91.80
46043;DHT22;32533;-33.854;18.542;2022-08-14T05:34:08;14.30;91.70
46043;DHT22;32533;-33.854;18.542;2022-08-14T05:36:36;14.30;91.60
46043;DHT22;32533;-33.854;18.542;2022-08-14T05:39:03;14.30;91.50
46043;DHT22;32533;-33.854;18.542;2022-08-14T05:41:30;14.30;91.50
46043;DHT22;32533;-33.854;18.542;2022-08-14T05:43:58;14.30;91.40
46043;DHT22;32533;-33.854;18.542;2022-08-14T05:46:24;14.30;91.30
46043;DHT22;32533;-33.854;18.542;2022-08-14T05:48:54;14.20;91.30
46043;DHT22;32533;-33.854;18.542;2022-08-14T05:51:22;14.20;91.30
46043;DHT22;32533;-33.854;18.542;2022-08-14T05:54:08;14.30;91.30
46043;DHT22;32533;-33.854;18.542;2022-08-14T05:56:43;14.20;91.20
46043;DHT22;32533;-33.854;18.542;2022-08-14T05:59:11;14.20;91.20
46043;DHT22;32533;-33.854;18.542;2022-08-14T06:01:59;14.20;91.20
46043;DHT22;32533;-33.854;18.542;2022-08-14T06:04:43;14.20;91.20
46043;DHT22;32533;-33.854;18.542;2022-08-14T06:07:16;14.30;91.40
46043;DHT22;32533;-33.854;18.542;2022-08-14T06:10:04;14.20;91.70
46043;DHT22;32533;-33.854;18.542;2022-08-14T06:13:09;14.30;91.80
46043;DHT22;32533;-33.854;18.542;2022-08-14T06:16:15;14.30;91.70
46043;DHT22;32533;-33.854;18.542;2022-08-14T06:19:23;14.30;91.60
46043;DHT22;32533;-33.854;18.542;2022-08-14T06:22:30;14.30;91.50
46043;DHT22;32533;-33.854;18.542;2022-08-14T06:25:36;14.30;91.50
46043;DHT22;32533;-33.854;18.542;2022-08-14T06:28:42;14.30;91.40
46043;DHT22;32533;-33.854;18.542;2022-08-14T06:31:48;14.30;91.40
46043;DHT22;32533;-33.854;18.542;2022-08-14T06:34:54;14.30;91.40
46043;DHT22;32533;-33.854;18.542;2022-08-14T06:37:47;14.30;91.30
46043;DHT22;32533;-33.854;18.542;2022-08-14T06:40:52;14.30;91.30
46043;DHT22;32533;-33.854;18.542;2022-08-14T06:43:58;14.30;91.30
46043;DHT22;32533;-33.854;18.542;2022-08-14T06:46:44;14.30;91.10
46043;DHT22;32533;-33.854;18.542;2022-08-14T06:49:11;14.30;90.90
46043;DHT22;32533;-33.854;18.542;2022-08-14T06:51:37;14.30;90.90
46043;DHT22;32533;-33.854;18.542;2022-08-14T06:54:06;14.30;90.80
46043;DHT22;32533;-33.854;18.542;2022-08-14T06:56:32;14.20;90.70
46043;DHT22;32533;-33.854;18.542;2022-08-14T06:58:59;14.20;90.80
46043;DHT22;32533;-33.854;18.542;2022-08-14T07:01:25;14.20;90.70
46043;DHT22;32533;-33.854;18.542;2022-08-14T07:04:10;14.20;90.80
46043;DHT22;32533;-33.854;18.542;2022-08-14T07:06:55;14.20;90.80
46043;DHT22;32533;-33.854;18.542;2022-08-14T07:09:21;14.20;90.80
46043;DHT22;32533;-33.854;18.542;2022-08-14T07:11:49;14.20;90.80
46043;DHT22;32533;-33.854;18.542;2022-08-14T07:14:16;14.30;90.80
46043;DHT22;32533;-33.854;18.542;2022-08-14T07:16:43;14.30;90.80
46043;DHT22;32533;-33.854;18.542;2022-08-14T07:19:09;14.40;90.70
46043;DHT22;32533;-33.854;18.542;2022-08-14T07:21:36;14.40;90.70
46043;DHT22;32533;-33.854;18.542;2022-08-14T07:24:04;14.40;90.70
46043;DHT22;32533;-33.854;18.542;2022-08-14T07:26:50;14.40;90.60
46043;DHT22;32533;-33.854;18.542;2022-08-14T07:29:36;14.40;90.60
46043;DHT22;32533;-33.854;18.542;2022-08-14T07:32:03;14.50;90.60
46043;DHT22;32533;-33.854;18.542;2022-08-14T07:34:30;14.50;90.60
46043;DHT22;32533;-33.854;18.542;2022-08-14T07:36:56;14.50;90.60
46043;DHT22;32533;-33.854;18.542;2022-08-14T07:39:23;14.50;90.50
46043;DHT22;32533;-33.854;18.542;2022-08-14T07:41:49;14.50;90.40
46043;DHT22;32533;-33.854;18.542;2022-08-14T07:44:16;14.60;90.50
46043;DHT22;32533;-33.854;18.542;2022-08-14T07:46:43;14.60;90.40
46043;DHT22;32533;-33.854;18.542;2022-08-14T07:49:10;14.60;90.40
46043;DHT22;32533;-33.854;18.542;2022-08-14T07:51:37;14.70;90.40
46043;DHT22;32533;-33.854;18.542;2022-08-14T07:54:05;14.70;90.30
46043;DHT22;32533;-33.854;18.542;2022-08-14T07:56:32;14.70;90.20
46043;DHT22;32533;-33.854;18.542;2022-08-14T07:58:58;14.70;90.00
46043;DHT22;32533;-33.854;18.542;2022-08-14T08:01:27;14.80;89.90
46043;DHT22;32533;-33.854;18.542;2022-08-14T08:03:57;14.80;89.70
46043;DHT22;32533;-33.854;18.542;2022-08-14T08:06:24;14.80;89.30
46043;DHT22;32533;-33.854;18.542;2022-08-14T08:08:53;14.80;89.00
46043;DHT22;32533;-33.854;18.542;2022-08-14T08:11:20;14.80;88.90
46043;DHT22;32533;-33.854;18.542;2022-08-14T08:13:48;14.80;88.60
46043;DHT22;32533;-33.854;18.542;2022-08-14T08:16:16;14.80;88.60
46043;DHT22;32533;-33.854;18.542;2022-08-14T08:18:48;14.80;88.70
46043;DHT22;32533;-33.854;18.542;2022-08-14T08:21:15;14.80;89.20
46043;DHT22;32533;-33.854;18.542;2022-08-14T08:23:42;14.80;88.50
46043;DHT22;32533;-33.854;18.542;2022-08-14T08:26:08;14.80;88.40
46043;DHT22;32533;-33.854;18.542;2022-08-14T08:28:35;14.80;88.30
46043;DHT22;32533;-33.854;18.542;2022-08-14T08:31:04;14.80;88.30
46043;DHT22;32533;-33.854;18.542;2022-08-14T08:33:33;14.80;88.90
46043;DHT22;32533;-33.854;18.542;2022-08-14T08:36:06;14.90;88.30
46043;DHT22;32533;-33.854;18.542;2022-08-14T08:38:33;14.90;88.20
46043;DHT22;32533;-33.854;18.542;2022-08-14T08:41:01;15.00;88.00
46043;DHT22;32533;-33.854;18.542;2022-08-14T08:43:33;15.00;87.80
46043;DHT22;32533;-33.854;18.542;2022-08-14T08:46:02;15.00;87.50
46043;DHT22;32533;-33.854;18.542;2022-08-14T08:48:52;15.10;87.00
46043;DHT22;32533;-33.854;18.542;2022-08-14T08:51:24;15.10;86.40
46043;DHT22;32533;-33.854;18.542;2022-08-14T08:56:38;15.20;85.90
46043;DHT22;32533;-33.854;18.542;2022-08-14T09:01:57;15.30;85.50
46043;DHT22;32533;-33.854;18.542;2022-08-14T09:04:27;15.30;85.00
46043;DHT22;32533;-33.854;18.542;2022-08-14T09:06:54;15.30;84.40
46043;DHT22;32533;-33.854;18.542;2022-08-14T09:09:28;15.30;84.00
46043;DHT22;32533;-33.854;18.542;2022-08-14T09:11:58;15.30;83.90
46043;DHT22;32533;-33.854;18.542;2022-08-14T09:14:28;15.30;84.80
46043;DHT22;32533;-33.854;18.542;2022-08-14T09:17:15;15.30;84.80
46043;DHT22;32533;-33.854;18.542;2022-08-14T09:20:21;15.30;85.20
46043;DHT22;32533;-33.854;18.542;2022-08-14T09:23:27;15.30;85.40
46043;DHT22;32533;-33.854;18.542;2022-08-14T09:26:34;15.30;85.80
46043;DHT22;32533;-33.854;18.542;2022-08-14T09:29:39;15.30;85.90
46043;DHT22;32533;-33.854;18.542;2022-08-14T09:36:02;15.30;86.20
46043;DHT22;32533;-33.854;18.542;2022-08-14T09:39:06;15.30;86.30
46043;DHT22;32533;-33.854;18.542;2022-08-14T09:44:56;15.30;85.60
46043;DHT22;32533;-33.854;18.542;2022-08-14T09:47:59;15.30;85.10
46043;DHT22;32533;-33.854;18.542;2022-08-14T09:50:31;15.30;84.80
46043;DHT22;32533;-33.854;18.542;2022-08-14T09:53:00;15.30;84.50
46043;DHT22;32533;-33.854;18.542;2022-08-14T09:55:29;15.30;84.40
46043;DHT22;32533;-33.854;18.542;2022-08-14T09:58:14;15.30;84.30
46043;DHT22;32533;-33.854;18.542;2022-08-14T10:00:52;15.30;84.40
46043;DHT22;32533;-33.854;18.542;2022-08-14T10:03:31;15.30;84.60
46043;DHT22;32533;-33.854;18.542;2022-08-14T10:06:10;15.30;84.60
46043;DHT22;32533;-33.854;18.542;2022-08-14T10:08:51;15.40;84.40
46043;DHT22;32533;-33.854;18.542;2022-08-14T10:11:28;15.40;84.20
46043;DHT22;32533;-33.854;18.542;2022-08-14T10:14:01;15.50;84.00
46043;DHT22;32533;-33.854;18.542;2022-08-14T10:16:43;15.50;83.50
46043;DHT22;32533;-33.854;18.542;2022-08-14T10:19:12;15.60;83.30
46043;DHT22;32533;-33.854;18.542;2022-08-14T10:21:42;15.60;82.80
46043;DHT22;32533;-33.854;18.542;2022-08-14T10:24:35;15.70;82.20
46043;DHT22;32533;-33.854;18.542;2022-08-14T10:27:23;15.80;81.50
46043;DHT22;32533;-33.854;18.542;2022-08-14T10:29:55;15.80;81.00
46043;DHT22;32533;-33.854;18.542;2022-08-14T10:32:25;15.80;80.50
46043;DHT22;32533;-33.854;18.542;2022-08-14T10:35:05;15.90;80.00
46043;DHT22;32533;-33.854;18.542;2022-08-14T10:37:46;16.00;80.00
46043;DHT22;32533;-33.854;18.542;2022-08-14T10:40:35;16.10;80.10
46043;DHT22;32533;-33.854;18.542;2022-08-14T10:43:02;16.10;80.40
46043;DHT22;32533;-33.854;18.542;2022-08-14T10:45:33;16.00;81.40
46043;DHT22;32533;-33.854;18.542;2022-08-14T10:48:00;16.00;82.20
46043;DHT22;32533;-33.854;18.542;2022-08-14T10:50:31;15.90;83.20
46043;DHT22;32533;-33.854;18.542;2022-08-14T10:52:59;15.90;83.90
46043;DHT22;32533;-33.854;18.542;2022-08-14T10:55:37;15.80;84.90
46043;DHT22;32533;-33.854;18.542;2022-08-14T10:58:06;15.80;86.90
46043;DHT22;32533;-33.854;18.542;2022-08-14T11:00:38;15.80;87.10
46043;DHT22;32533;-33.854;18.542;2022-08-14T11:03:07;15.80;88.10
46043;DHT22;32533;-33.854;18.542;2022-08-14T11:05:40;15.80;88.60
46043;DHT22;32533;-33.854;18.542;2022-08-14T11:08:08;15.70;88.50
46043;DHT22;32533;-33.854;18.542;2022-08-14T11:10:40;15.70;88.50
46043;DHT22;32533;-33.854;18.542;2022-08-14T11:13:07;15.70;88.40
46043;DHT22;32533;-33.854;18.542;2022-08-14T11:15:34;15.70;88.20
46043;DHT22;32533;-33.854;18.542;2022-08-14T11:18:02;15.70;87.70
46043;DHT22;32533;-33.854;18.542;2022-08-14T11:20:51;15.60;87.00
46043;DHT22;32533;-33.854;18.542;2022-08-14T11:23:56;15.60;86.40
46043;DHT22;32533;-33.854;18.542;2022-08-14T11:26:32;15.50;85.80
46043;DHT22;32533;-33.854;18.542;2022-08-14T11:29:20;15.50;85.40
46043;DHT22;32533;-33.854;18.542;2022-08-14T11:31:58;15.50;85.00
46043;DHT22;32533;-33.854;18.542;2022-08-14T11:34:25;15.50;84.90
46043;DHT22;32533;-33.854;18.542;2022-08-14T11:36:51;15.50;84.40
46043;DHT22;32533;-33.854;18.542;2022-08-14T11:39:23;15.50;84.10
46043;DHT22;32533;-33.854;18.542;2022-08-14T11:41:49;15.60;84.10
46043;DHT22;32533;-33.854;18.542;2022-08-14T11:44:16;15.70;83.70
46043;DHT22;32533;-33.854;18.542;2022-08-14T11:46:42;15.70;83.40
46043;DHT22;32533;-33.854;18.542;2022-08-14T11:49:09;15.70;83.10
46043;DHT22;32533;-33.854;18.542;2022-08-14T11:51:35;15.80;82.10
46043;DHT22;32533;-33.854;18.542;2022-08-14T11:54:04;15.80;81.70
46043;DHT22;32533;-33.854;18.542;2022-08-14T11:56:39;15.80;81.20
46043;DHT22;32533;-33.854;18.542;2022-08-14T11:59:16;15.80;80.70
46043;DHT22;32533;-33.854;18.542;2022-08-14T12:01:44;15.90;81.00
46043;DHT22;32533;-33.854;18.542;2022-08-14T12:04:18;15.90;80.70
46043;DHT22;32533;-33.854;18.542;2022-08-14T12:06:50;15.90;80.20
46043;DHT22;32533;-33.854;18.542;2022-08-14T12:09:33;15.90;79.90
46043;DHT22;32533;-33.854;18.542;2022-08-14T12:12:01;15.90;79.60
46043;DHT22;32533;-33.854;18.542;2022-08-14T12:14:57;15.90;79.50
46043;DHT22;32533;-33.854;18.542;2022-08-14T12:17:29;15.80;79.50
46043;DHT22;32533;-33.854;18.542;2022-08-14T12:20:03;15.80;79.50
46043;DHT22;32533;-33.854;18.542;2022-08-14T12:25:06;15.70;81.30
46043;DHT22;32533;-33.854;18.542;2022-08-14T12:27:48;15.70;81.60
46043;DHT22;32533;-33.854;18.542;2022-08-14T12:32:54;15.60;82.80
46043;DHT22;32533;-33.854;18.542;2022-08-14T12:35:21;15.60;82.90
46043;DHT22;32533;-33.854;18.542;2022-08-14T12:37:51;15.60;82.90
46043;DHT22;32533;-33.854;18.542;2022-08-14T12:40:19;15.60;83.00
46043;DHT22;32533;-33.854;18.542;2022-08-14T12:42:49;15.60;83.40
46043;DHT22;32533;-33.854;18.542;2022-08-14T12:45:17;15.60;83.80
46043;DHT22;32533;-33.854;18.542;2022-08-14T12:47:59;15.60;84.00
46043;DHT22;32533;-33.854;18.542;2022-08-14T12:50:40;15.60;84.00
46043;DHT22;32533;-33.854;18.542;2022-08-14T12:53:07;15.70;83.90
46043;DHT22;32533;-33.854;18.542;2022-08-14T12:55:36;15.60;83.40
46043;DHT22;32533;-33.854;18.542;2022-08-14T12:58:04;15.70;83.30
46043;DHT22;32533;-33.854;18.542;2022-08-14T13:00:37;15.70;83.20
46043;DHT22;32533;-33.854;18.542;2022-08-14T13:03:04;15.80;83.30
46043;DHT22;32533;-33.854;18.542;2022-08-14T13:05:32;15.80;83.10
46043;DHT22;32533;-33.854;18.542;2022-08-14T13:08:04;15.80;82.40
46043;DHT22;32533;-33.854;18.542;2022-08-14T13:10:34;15.70;81.50
46043;DHT22;32533;-33.854;18.542;2022-08-14T13:13:01;15.70;81.00
46043;DHT22;32533;-33.854;18.542;2022-08-14T13:15:27;15.70;80.60
46043;DHT22;32533;-33.854;18.542;2022-08-14T13:17:55;15.70;80.30
46043;DHT22;32533;-33.854;18.542;2022-08-14T13:20:24;15.70;80.00
46043;DHT22;32533;-33.854;18.542;2022-08-14T13:22:52;15.70;79.60
46043;DHT22;32533;-33.854;18.542;2022-08-14T13:25:23;15.60;78.80
46043;DHT22;32533;-33.854;18.542;2022-08-14T13:27:52;15.60;78.30
46043;DHT22;32533;-33.854;18.542;2022-08-14T13:30:24;15.60;78.00
46043;DHT22;32533;-33.854;18.542;2022-08-14T13:32:53;15.60;77.90
46043;DHT22;32533;-33.854;18.542;2022-08-14T13:35:20;15.70;77.70
46043;DHT22;32533;-33.854;18.542;2022-08-14T13:37:48;15.70;77.70
46043;DHT22;32533;-33.854;18.542;2022-08-14T13:40:20;15.70;77.40
46043;DHT22;32533;-33.854;18.542;2022-08-14T13:42:48;15.80;76.90
46043;DHT22;32533;-33.854;18.542;2022-08-14T13:45:17;15.90;76.70
46043;DHT22;32533;-33.854;18.542;2022-08-14T13:47:46;15.90;76.30
46043;DHT22;32533;-33.854;18.542;2022-08-14T13:50:14;16.00;75.80
46043;DHT22;32533;-33.854;18.542;2022-08-14T13:52:49;16.00;75.40
46043;DHT22;32533;-33.854;18.542;2022-08-14T13:55:21;16.00;74.80
46043;DHT22;32533;-33.854;18.542;2022-08-14T13:57:48;16.10;74.80
46043;DHT22;32533;-33.854;18.542;2022-08-14T14:00:16;16.10;74.50
46043;DHT22;32533;-33.854;18.542;2022-08-14T14:02:46;16.10;74.40
46043;DHT22;32533;-33.854;18.542;2022-08-14T14:05:15;16.20;74.10
46043;DHT22;32533;-33.854;18.542;2022-08-14T14:07:48;16.20;73.70
46043;DHT22;32533;-33.854;18.542;2022-08-14T14:10:16;16.20;73.50
46043;DHT22;32533;-33.854;18.542;2022-08-14T14:12:44;16.20;73.10
46043;DHT22;32533;-33.854;18.542;2022-08-14T14:15:14;16.20;72.80
46043;DHT22;32533;-33.854;18.542;2022-08-14T14:17:42;16.20;73.10
46043;DHT22;32533;-33.854;18.542;2022-08-14T14:20:14;16.30;72.40
46043;DHT22;32533;-33.854;18.542;2022-08-14T14:22:50;16.30;72.20
46043;DHT22;32533;-33.854;18.542;2022-08-14T14:25:18;16.30;72.40
46043;DHT22;32533;-33.854;18.542;2022-08-14T14:27:47;16.30;72.40
46043;DHT22;32533;-33.854;18.542;2022-08-14T14:30:16;16.30;72.30
46043;DHT22;32533;-33.854;18.542;2022-08-14T14:32:44;16.30;71.80
46043;DHT22;32533;-33.854;18.542;2022-08-14T14:35:14;16.30;71.20
46043;DHT22;32533;-33.854;18.542;2022-08-14T14:37:42;16.30;71.00
46043;DHT22;32533;-33.854;18.542;2022-08-14T14:40:11;16.30;70.70
46043;DHT22;32533;-33.854;18.542;2022-08-14T14:42:46;16.30;70.60
46043;DHT22;32533;-33.854;18.542;2022-08-14T14:45:18;16.30;70.30
46043;DHT22;32533;-33.854;18.542;2022-08-14T14:47:47;16.30;70.30
46043;DHT22;32533;-33.854;18.542;2022-08-14T14:50:16;16.20;70.60
46043;DHT22;32533;-33.854;18.542;2022-08-14T14:52:45;16.30;70.90
46043;DHT22;32533;-33.854;18.542;2022-08-14T14:55:12;16.20;70.30
46043;DHT22;32533;-33.854;18.542;2022-08-14T14:57:40;16.20;70.20
46043;DHT22;32533;-33.854;18.542;2022-08-14T15:00:14;16.30;70.50
46043;DHT22;32533;-33.854;18.542;2022-08-14T15:02:45;16.20;70.00
46043;DHT22;32533;-33.854;18.542;2022-08-14T15:05:13;16.20;69.40
46043;DHT22;32533;-33.854;18.542;2022-08-14T15:07:43;16.20;68.80
46043;DHT22;32533;-33.854;18.542;2022-08-14T15:10:12;16.10;68.30
46043;DHT22;32533;-33.854;18.542;2022-08-14T15:12:39;16.10;68.10
46043;DHT22;32533;-33.854;18.542;2022-08-14T15:15:06;16.10;67.80
46043;DHT22;32533;-33.854;18.542;2022-08-14T15:17:33;16.00;68.10
46043;DHT22;32533;-33.854;18.542;2022-08-14T15:20:14;16.00;67.70
46043;DHT22;32533;-33.854;18.542;2022-08-14T15:22:41;16.00;68.30
46043;DHT22;32533;-33.854;18.542;2022-08-14T15:25:09;16.00;68.80
46043;DHT22;32533;-33.854;18.542;2022-08-14T15:27:38;15.90;68.30
46043;DHT22;32533;-33.854;18.542;2022-08-14T15:30:09;15.90;67.10
46043;DHT22;32533;-33.854;18.542;2022-08-14T15:32:41;15.90;67.10
46043;DHT22;32533;-33.854;18.542;2022-08-14T15:35:28;15.90;66.70
46043;DHT22;32533;-33.854;18.542;2022-08-14T15:38:34;15.80;66.40
46043;DHT22;32533;-33.854;18.542;2022-08-14T15:41:40;15.80;66.10
46043;DHT22;32533;-33.854;18.542;2022-08-14T15:44:27;15.70;66.00
46043;DHT22;32533;-33.854;18.542;2022-08-14T15:47:33;15.70;66.00
46043;DHT22;32533;-33.854;18.542;2022-08-14T15:50:40;15.70;65.90
46043;DHT22;32533;-33.854;18.542;2022-08-14T15:53:46;15.70;65.60